This is the latest recevied weather packets stored in our database for station/object TA8CW-13. If no packets are shown the sender has not sent any weather packets the latest 10 day(s).
| Time | Temp. | Humidity | Pressure | Rain* | Wind** | Luminosity | Snow |
|---|---|---|---|---|---|---|---|
| 1777703163 | 15.56° C | 68% | 1012.4 hPa | 0 mm | - | 453 W/m² | - |
| 1777696084 | 11.67° C | 91% | 1012.2 hPa | 0 mm | - | 108 W/m² | - |
| 1777684398 | 11.67° C | 95% | 1011.4 hPa | 0 mm | - | 0 W/m² | - |
| 1777678175 | 12.78° C | 91% | 1011.5 hPa | 0 mm | - | 0 W/m² | - |
| 1777674523 | 12.78° C | 89% | 1012 hPa | 0 mm | - | 0 W/m² | - |
| 1777671064 | 13.33° C | 91% | 1011.7 hPa | 0 mm | - | 0 W/m² | - |
| 1777667595 | 13.33° C | 89% | 1011.7 hPa | 0 mm | - | 0 W/m² | - |
| 1777664377 | 13.33° C | 87% | 1011.6 hPa | 0 mm | - | 0 W/m² | - |
| 1777659128 | 14.44° C | 78% | 1011.5 hPa | 0 mm | - | 0 W/m² | - |
| 1777655569 | 15.56° C | 75% | 1010.5 hPa | 0 mm | - | 1 W/m² | - |
| 1777651743 | 15.56° C | 73% | 1010.6 hPa | 0.25 mm | - | 45 W/m² | - |
| 1777648280 | 17.78° C | 63% | 1010 hPa | 0 mm | - | 196 W/m² | - |
| 1777639114 | 20.56° C | 43% | 1009.7 hPa | 0 mm | - | 608 W/m² | - |
| 1777635239 | 21.11° C | 46% | 1010.2 hPa | 0 mm | - | 777 W/m² | - |
| 1777630425 | 21.67° C | 44% | 1010.6 hPa | 0 mm | - | 765 W/m² | - |
| 1777625468 | 21.11° C | 47% | 1012 hPa | 0 mm | - | 671 W/m² | - |
| 1777617942 | 19.44° C | 57% | 1012.9 hPa | 0 mm | - | 453 W/m² | - |
| 1777608779 | 13.89° C | 74% | 1013.7 hPa | 0 mm | - | 111 W/m² | - |
| 1777593995 | 12.22° C | 74% | 1013.7 hPa | 0 mm | - | 0 W/m² | - |
| 1777590676 | 12.22° C | 74% | 1014 hPa | 0 mm | - | 0 W/m² | - |
| 1777587160 | 12.78° C | 74% | 1014.3 hPa | 0 mm | - | 0 W/m² | - |
| 1777583759 | 13.33° C | 80% | 1014.2 hPa | 0 mm | - | 0 W/m² | - |
| 1777579940 | 14.44° C | 77% | 1014.2 hPa | 0 mm | - | 0 W/m² | - |
| 1777575458 | 16.11° C | 57% | 1013.8 hPa | 0 mm | - | 0 W/m² | - |
| 1777570839 | 17.78° C | 53% | 1013.3 hPa | 0 mm | - | 1 W/m² | - |
* Rain latest hour (hover to see other rain measurements)
** Current wind speed in m/s (hover to see current wind gust speed)